Time;durP1;ratioP1;P1;durP2;ratioP2;P2;SDS_P1;SDS_P2;PMS_P1;PMS_P2;Temp;Humidity;BMP_temperature;BMP_pressure;BME280_temperature;BME280_humidity;BME280_pressure;Samples;Min_cycle;Max_cycle;Signal;HPM_P1;HPM_P2
2022/06/29 00:01:23;;;;;;;;;16.40;15.40;;;;;26.70;62.97;99058.97;6257769;27;98896;-70
2022/06/29 00:04:26;;;;;;;;;16.00;14.00;;;;;26.70;62.57;99064.50;6259115;27;96813;-70
2022/06/29 00:07:32;;;;;;;;;14.50;13.50;;;;;26.73;62.40;99066.59;6243086;27;97822;-69
2022/06/29 00:10:38;;;;;;;;;15.00;15.00;;;;;26.73;62.70;99065.81;6262371;27;96684;-69
2022/06/29 00:13:41;;;;;;;;;14.00;13.20;;;;;26.71;62.52;99057.00;6262658;27;96911;-70
2022/06/29 00:16:45;;;;;;;;;15.00;14.50;;;;;26.67;62.44;99051.31;6259882;27;97203;-70
2022/06/29 00:19:49;;;;;;;;;16.00;14.00;;;;;26.62;62.77;99042.38;6260897;27;97507;-70
2022/06/29 00:22:53;;;;;;;;;14.25;14.00;;;;;26.54;62.41;99043.13;6259886;27;96817;-70
2022/06/29 00:25:58;;;;;;;;;16.00;15.00;;;;;26.50;62.29;99051.28;6248159;27;96745;-70
2022/06/29 00:29:02;;;;;;;;;16.25;15.00;;;;;26.49;62.53;99049.66;6261782;27;98116;-70
2022/06/29 00:32:06;;;;;;;;;16.00;15.80;;;;;26.48;62.13;99048.03;6261140;27;96743;-70
2022/06/29 00:35:10;;;;;;;;;15.00;14.00;;;;;26.44;62.48;99049.00;6253373;27;97672;-70
2022/06/29 00:38:13;;;;;;;;;17.20;16.00;;;;;26.46;62.61;99046.72;6244440;27;96763;-70
2022/06/29 00:41:18;;;;;;;;;20.00;17.50;;;;;26.44;62.56;99044.25;6252287;27;97463;-70
2022/06/29 00:44:22;;;;;;;;;18.60;16.20;;;;;26.49;62.65;99040.53;6260204;27;96753;-69
2022/06/29 00:47:25;;;;;;;;;17.00;16.00;;;;;26.51;62.55;99027.22;6247163;27;97994;-69
2022/06/29 00:50:32;;;;;;;;;17.00;17.00;;;;;26.54;62.74;99030.13;6258402;27;97055;-70
2022/06/29 00:53:40;;;;;;;;;17.00;16.00;;;;;26.58;63.19;99025.63;6247099;27;96916;-69
2022/06/29 00:56:46;;;;;;;;;19.00;18.00;;;;;26.49;63.04;99002.63;6257893;27;96802;-70
2022/06/29 00:59:51;;;;;;;;;18.00;16.00;;;;;26.60;63.00;99020.56;6259884;27;97385;-69
2022/06/29 01:02:55;;;;;;;;;18.60;17.00;;;;;26.63;62.96;99008.84;6240015;27;98654;-70
2022/06/29 01:06:03;;;;;;;;;18.75;18.00;;;;;26.66;63.10;99012.91;6261929;27;96896;-69
2022/06/29 01:09:06;;;;;;;;;21.00;17.75;;;;;26.62;63.04;99021.06;6253510;27;97795;-70
2022/06/29 01:12:12;;;;;;;;;18.00;18.00;;;;;26.57;63.04;99014.88;6243394;27;97375;-69
2022/06/29 01:15:16;;;;;;;;;18.00;17.00;;;;;26.60;62.84;99009.50;6242663;27;99450;-70
2022/06/29 01:18:19;;;;;;;;;17.00;15.00;;;;;26.63;63.21;99003.31;6228455;27;99460;-70
2022/06/29 01:21:26;;;;;;;;;15.00;14.00;;;;;26.67;62.97;99007.06;6240006;27;99493;-70
2022/06/29 01:24:31;;;;;;;;;18.00;17.00;;;;;26.69;63.20;98995.66;6261219;27;97550;-69
2022/06/29 01:27:34;;;;;;;;;21.00;19.00;;;;;26.77;63.12;98988.53;6218954;27;97918;-69
2022/06/29 01:30:38;;;;;;;;;18.00;16.80;;;;;26.83;63.24;98978.94;6234781;27;98079;-69
2022/06/29 01:33:44;;;;;;;;;18.00;16.40;;;;;26.80;63.19;98971.25;6261113;27;96854;-70
2022/06/29 01:36:47;;;;;;;;;20.40;17.60;;;;;26.86;63.19;98967.19;6250055;27;98481;-71
2022/06/29 01:39:52;;;;;;;;;18.00;16.25;;;;;26.87;62.50;98971.63;6258058;27;96641;-70
2022/06/29 01:42:56;;;;;;;;;18.40;17.00;;;;;26.88;62.68;98956.66;6258247;27;97524;-69
2022/06/29 01:46:00;;;;;;;;;21.00;17.60;;;;;26.92;62.71;98963.97;6260612;27;96685;-69
2022/06/29 01:49:03;;;;;;;;;15.00;14.00;;;;;26.93;62.34;98962.81;6247969;27;97231;-69
2022/06/29 01:52:07;;;;;;;;;17.60;17.00;;;;;26.93;61.72;98967.53;6255233;27;96763;-69
2022/06/29 01:55:12;;;;;;;;;18.60;18.00;;;;;26.95;61.67;98970.78;6246051;27;98374;-70
2022/06/29 01:58:17;;;;;;;;;19.40;18.00;;;;;26.93;61.07;98968.34;6230284;27;99437;-70
2022/06/29 02:01:20;;;;;;;;;16.00;15.00;;;;;26.91;60.59;98978.13;6261529;27;97113;-70
2022/06/29 02:04:24;;;;;;;;;14.00;14.00;;;;;26.85;60.43;98977.44;6257712;27;97776;-70
2022/06/29 02:07:27;;;;;;;;;14.40;14.40;;;;;26.90;59.81;98984.78;6260046;27;97256;-69
2022/06/29 02:10:32;;;;;;;;;15.20;14.60;;;;;26.89;59.73;98997.81;6258839;27;97171;-69
2022/06/29 02:13:35;;;;;;;;;15.00;14.00;;;;;26.90;59.71;98993.91;6252064;27;97844;-69
2022/06/29 02:16:39;;;;;;;;;13.60;12.20;;;;;26.92;58.92;98983.34;6257081;27;97340;-69
2022/06/29 02:19:42;;;;;;;;;15.40;14.00;;;;;26.95;58.86;98959.72;6259457;27;97476;-69
2022/06/29 02:22:46;;;;;;;;;12.00;12.00;;;;;26.90;59.03;98955.19;6259949;27;96724;-69
2022/06/29 02:25:53;;;;;;;;;13.80;12.40;;;;;26.88;58.88;98954.69;6246024;27;97885;-71
2022/06/29 02:28:57;;;;;;;;;15.20;14.00;;;;;26.89;58.72;98953.53;6256496;27;97815;-72
2022/06/29 02:35:21;;;;;;;;;14.00;13.00;;;;;26.76;59.01;98940.69;6260021;27;97541;-70
2022/06/29 02:38:25;;;;;;;;;11.20;11.00;;;;;26.84;58.44;98955.63;6251745;27;97447;-69
2022/06/29 02:41:30;;;;;;;;;13.00;11.00;;;;;26.83;58.57;98954.03;6249932;27;98530;-69
2022/06/29 02:44:34;;;;;;;;;13.00;12.00;;;;;26.83;58.46;98951.25;6262859;27;97034;-69
2022/06/29 02:47:37;;;;;;;;;14.40;12.60;;;;;26.82;58.28;98947.69;6243040;27;98416;-69
2022/06/29 02:50:40;;;;;;;;;14.00;13.00;;;;;26.82;58.31;98952.41;6260258;27;98051;-69
2022/06/29 02:53:44;;;;;;;;;14.40;13.80;;;;;26.85;57.99;98958.09;6262420;27;97612;-69
2022/06/29 02:56:48;;;;;;;;;13.25;13.00;;;;;26.86;58.15;98950.59;6259584;27;97947;-70
2022/06/29 02:59:52;;;;;;;;;14.40;12.80;;;;;26.88;57.93;98953.91;6263150;27;96616;-70
2022/06/29 03:02:55;;;;;;;;;13.00;13.00;;;;;26.88;58.01;98956.66;6261000;27;97780;-71
2022/06/29 03:05:59;;;;;;;;;12.00;11.00;;;;;26.89;58.00;98952.72;6244159;27;97575;-69
2022/06/29 03:09:02;;;;;;;;;11.40;11.40;;;;;26.92;57.75;98947.38;6247131;27;96829;-70
2022/06/29 03:12:08;;;;;;;;;14.00;13.00;;;;;26.93;58.11;98942.63;6244049;27;97085;-70
2022/06/29 03:15:11;;;;;;;;;13.00;13.00;;;;;26.95;57.50;98948.66;6263321;27;97709;-71
2022/06/29 03:18:15;;;;;;;;;12.00;11.00;;;;;26.98;57.91;98945.22;6264270;27;97465;-69
2022/06/29 03:21:18;;;;;;;;;12.00;11.25;;;;;27.00;57.17;98940.19;6243054;27;98746;-69
2022/06/29 03:24:22;;;;;;;;;14.00;13.00;;;;;26.99;57.23;98935.78;6264621;27;96454;-70
2022/06/29 03:27:26;;;;;;;;;13.67;12.00;;;;;27.03;57.04;98950.59;6247426;27;97741;-69
2022/06/29 03:30:32;;;;;;;;;16.00;13.25;;;;;27.01;56.97;98953.72;6256010;27;99409;-70
2022/06/29 03:33:35;;;;;;;;;15.00;14.00;;;;;27.05;56.77;98946.38;6242212;27;98524;-70
2022/06/29 03:36:39;;;;;;;;;13.00;12.00;;;;;27.09;56.60;98938.22;6263211;27;96502;-70
2022/06/29 03:39:44;;;;;;;;;15.00;12.75;;;;;27.14;56.93;98933.31;6249876;27;96293;-68
2022/06/29 03:42:49;;;;;;;;;13.20;13.20;;;;;27.17;56.84;98920.78;6261466;27;97685;-71
2022/06/29 03:45:52;;;;;;;;;16.00;15.00;;;;;27.18;56.65;98916.88;6263063;27;97322;-70
2022/06/29 03:48:56;;;;;;;;;14.67;13.00;;;;;27.15;56.83;98915.59;6244545;27;99459;-70
2022/06/29 03:51:59;;;;;;;;;13.00;12.60;;;;;27.14;56.73;98922.25;6248215;27;97671;-70
2022/06/29 03:55:06;;;;;;;;;15.00;13.00;;;;;27.12;56.69;98927.28;6244890;27;96724;-70
2022/06/29 03:58:10;;;;;;;;;15.00;13.80;;;;;27.08;57.05;98917.22;6242201;27;97073;-69
2022/06/29 04:01:14;;;;;;;;;14.00;12.00;;;;;27.18;56.62;98930.69;6223121;27;97692;-69
2022/06/29 04:04:17;;;;;;;;;15.00;14.00;;;;;27.19;57.00;98929.56;6259954;27;97187;-69
2022/06/29 04:07:21;;;;;;;;;14.00;14.00;;;;;27.19;56.51;98915.72;6242774;27;97336;-69
2022/06/29 04:10:25;;;;;;;;;16.00;14.80;;;;;27.17;56.87;98922.75;6241866;27;99504;-69
2022/06/29 04:13:29;;;;;;;;;16.00;13.50;;;;;27.16;56.93;98933.00;6241862;27;97553;-69
2022/06/29 04:16:33;;;;;;;;;14.00;13.20;;;;;27.13;57.06;98931.69;6257913;27;97528;-69
2022/06/29 04:19:36;;;;;;;;;15.60;14.60;;;;;27.13;56.93;98928.09;6260859;27;98101;-69
2022/06/29 04:22:40;;;;;;;;;15.40;14.40;;;;;27.13;56.74;98923.38;6244254;27;98491;-69
2022/06/29 04:25:43;;;;;;;;;17.20;17.00;;;;;27.12;57.09;98921.75;6240146;27;99462;-69
2022/06/29 04:28:51;;;;;;;;;20.00;16.60;;;;;27.06;56.91;98905.69;6248008;27;98549;-69
2022/06/29 04:31:54;;;;;;;;;23.50;19.00;;;;;27.02;57.29;98921.31;6255782;27;98336;-69
2022/06/29 04:34:58;;;;;;;;;18.00;17.00;;;;;26.90;57.46;98907.34;6257833;27;97459;-70
2022/06/29 04:38:01;;;;;;;;;17.00;16.75;;;;;26.83;57.91;98893.16;6227391;27;97623;-69
2022/06/29 04:41:05;;;;;;;;;21.00;20.00;;;;;26.85;57.86;98908.28;6241691;27;97936;-69
2022/06/29 04:44:09;;;;;;;;;25.60;21.00;;;;;26.88;57.84;98907.66;6243478;27;99625;-70
2022/06/29 04:47:13;;;;;;;;;25.25;23.00;;;;;26.76;57.94;98914.97;6223840;27;99407;-69
2022/06/29 04:50:17;;;;;;;;;33.40;29.00;;;;;26.73;58.14;98919.22;6254461;27;97672;-69
2022/06/29 04:53:20;;;;;;;;;31.00;28.00;;;;;26.78;58.26;98913.50;6259332;27;97437;-68
2022/06/29 04:56:25;;;;;;;;;23.80;21.80;;;;;26.81;58.05;98917.56;6261705;27;97976;-70
2022/06/29 04:59:30;;;;;;;;;26.40;23.00;;;;;26.84;57.95;98927.97;6261627;27;97682;-70
2022/06/29 05:02:33;;;;;;;;;24.00;21.00;;;;;26.87;57.86;98921.84;6259276;27;97074;-69
2022/06/29 05:05:37;;;;;;;;;24.00;20.00;;;;;27.00;57.71;98924.41;6259277;27;99204;-69
2022/06/29 05:08:40;;;;;;;;;23.50;21.00;;;;;26.91;57.37;98911.72;6261054;27;97400;-70
2022/06/29 05:11:44;;;;;;;;;21.50;20.00;;;;;26.97;57.34;98914.00;6258442;27;96663;-71
2022/06/29 05:14:49;;;;;;;;;20.80;16.80;;;;;27.10;57.20;98918.53;6259993;27;97386;-69
2022/06/29 05:17:52;;;;;;;;;21.75;18.00;;;;;27.20;56.52;98911.81;6260927;27;96891;-69
2022/06/29 05:20:56;;;;;;;;;19.80;18.00;;;;;27.25;56.44;98914.41;6244288;27;97449;-69
2022/06/29 05:23:59;;;;;;;;;22.00;19.00;;;;;27.41;55.99;98917.47;6261147;27;96682;-69
2022/06/29 05:27:03;;;;;;;;;19.40;17.20;;;;;27.52;55.84;98911.22;6245820;27;97522;-69
2022/06/29 05:30:09;;;;;;;;;20.50;18.00;;;;;27.74;55.69;98910.16;6261584;27;96507;-69
2022/06/29 05:33:12;;;;;;;;;23.40;20.00;;;;;27.68;54.99;98913.44;6257115;27;97425;-69
2022/06/29 05:36:16;;;;;;;;;20.60;19.00;;;;;27.80;54.86;98919.09;6259670;27;97753;-70
2022/06/29 05:39:22;;;;;;;;;18.00;17.80;;;;;27.89;55.20;98912.38;6258725;27;97122;-69
2022/06/29 05:42:25;;;;;;;;;19.25;17.00;;;;;27.99;54.49;98917.53;6241537;27;97512;-69
2022/06/29 05:45:30;;;;;;;;;19.60;17.60;;;;;28.06;53.90;98913.38;6262149;27;97522;-69
2022/06/29 05:48:34;;;;;;;;;22.00;19.00;;;;;28.43;53.89;98929.16;6261581;27;97530;-69
2022/06/29 05:51:37;;;;;;;;;17.75;16.50;;;;;28.69;52.90;98920.59;6257619;27;97481;-71
2022/06/29 05:54:41;;;;;;;;;17.60;16.80;;;;;29.05;51.92;98933.84;6258514;27;97246;-70
2022/06/29 05:57:45;;;;;;;;;19.00;18.60;;;;;29.05;50.91;98928.28;6259646;27;96669;-70
2022/06/29 06:00:50;;;;;;;;;18.00;17.00;;;;;29.05;51.66;98908.84;6233645;27;97242;-70
2022/06/29 06:03:54;;;;;;;;;15.80;15.00;;;;;29.11;51.13;98913.03;6256428;27;97302;-70
2022/06/29 06:06:57;;;;;;;;;21.60;17.40;;;;;29.08;51.10;98916.47;6238984;27;97286;-70
2022/06/29 06:10:01;;;;;;;;;19.00;17.00;;;;;29.23;50.87;98924.97;6239881;27;99537;-70
2022/06/29 06:13:05;;;;;;;;;18.60;17.20;;;;;29.34;50.23;98927.34;6231084;27;96907;-70
2022/06/29 06:16:10;;;;;;;;;21.00;19.00;;;;;29.46;50.25;98935.69;6238954;27;97762;-70
2022/06/29 06:19:33;;;;;;;;;21.00;19.40;;;;;29.56;49.63;98936.06;6241494;27;97462;-70
2022/06/29 06:22:37;;;;;;;;;20.00;19.00;;;;;29.65;49.79;98930.41;6261682;27;97590;-69
2022/06/29 06:25:40;;;;;;;;;19.20;16.80;;;;;29.74;49.85;98933.88;6262853;27;96611;-70
2022/06/29 06:28:43;;;;;;;;;19.50;17.50;;;;;29.83;49.08;98934.56;6227935;27;96775;-69
2022/06/29 06:31:48;;;;;;;;;17.40;16.40;;;;;29.89;49.19;98927.66;6265469;27;96989;-70
2022/06/29 06:34:51;;;;;;;;;17.60;16.00;;;;;30.03;48.94;98924.50;6245853;27;97781;-72
2022/06/29 06:37:55;;;;;;;;;21.40;19.00;;;;;30.17;49.16;98915.78;6237726;27;99851;-71
2022/06/29 06:44:19;;;;;;;;;19.40;17.00;;;;;30.32;48.09;98907.53;6246759;27;97128;-70
2022/06/29 06:47:24;;;;;;;;;19.00;18.00;;;;;30.24;48.20;98893.78;6265019;27;97494;-71
2022/06/29 06:50:28;;;;;;;;;19.60;18.00;;;;;30.28;47.76;98914.16;6244691;27;97250;-71
2022/06/29 06:53:33;;;;;;;;;21.00;18.00;;;;;30.36;47.58;98914.00;6246979;27;97634;-71
2022/06/29 06:56:37;;;;;;;;;21.20;19.40;;;;;30.66;47.50;98911.75;6221333;27;97032;-71
2022/06/29 06:59:40;;;;;;;;;20.25;18.00;;;;;30.89;47.10;98906.41;6258999;27;98093;-71
2022/06/29 07:02:45;;;;;;;;;17.80;16.20;;;;;30.97;46.27;98902.69;6261058;27;96897;-70
2022/06/29 07:05:48;;;;;;;;;17.80;17.00;;;;;31.05;46.21;98896.16;6248583;27;97120;-71
2022/06/29 07:08:54;;;;;;;;;19.00;16.50;;;;;31.30;45.66;98894.03;6262000;27;97510;-71
2022/06/29 07:11:57;;;;;;;;;17.50;16.50;;;;;31.42;45.15;98895.94;6215870;27;96642;-71
2022/06/29 07:15:00;;;;;;;;;19.40;17.00;;;;;31.56;45.78;98886.00;6244093;27;96850;-72
2022/06/29 07:18:06;;;;;;;;;19.40;19.00;;;;;31.73;44.72;98880.03;6244674;27;98467;-72
2022/06/29 07:21:09;;;;;;;;;21.00;18.00;;;;;31.78;44.67;98887.31;6263657;27;96618;-73
2022/06/29 07:24:12;;;;;;;;;20.20;16.60;;;;;31.77;44.48;98888.47;6261274;27;96813;-72
2022/06/29 07:27:16;;;;;;;;;20.25;18.25;;;;;32.00;45.52;98883.03;6261557;27;97394;-72
2022/06/29 07:30:20;;;;;;;;;22.60;18.00;;;;;32.11;44.01;98870.16;6241613;27;97836;-71
2022/06/29 07:33:25;;;;;;;;;20.20;19.00;;;;;32.11;43.63;98872.94;6218898;27;100267;-72
2022/06/29 07:36:29;;;;;;;;;18.75;16.75;;;;;32.28;44.33;98878.13;6261708;27;98627;-71
2022/06/29 07:39:32;;;;;;;;;20.00;17.00;;;;;32.49;43.87;98877.78;6256063;27;97550;-72
2022/06/29 07:42:52;;;;;;;;;16.00;16.00;;;;;32.64;42.89;98880.53;6240910;27;96775;-72
2022/06/29 07:45:57;;;;;;;;;19.50;17.50;;;;;32.58;42.28;98868.00;6258788;27;97225;-71
2022/06/29 07:49:02;;;;;;;;;18.00;16.00;;;;;32.73;42.07;98879.50;6246637;27;96898;-72
2022/06/29 07:52:06;;;;;;;;;19.40;17.00;;;;;32.57;42.11;98866.38;6236881;27;97933;-72
2022/06/29 07:55:10;;;;;;;;;18.80;17.00;;;;;32.57;42.25;98871.16;6258916;27;96899;-72
2022/06/29 07:58:14;;;;;;;;;19.00;16.50;;;;;32.61;42.35;98861.69;6240279;27;99492;-72
2022/06/29 08:01:18;;;;;;;;;18.75;18.00;;;;;32.73;41.58;98869.13;6261204;27;97542;-71
2022/06/29 08:04:23;;;;;;;;;16.00;15.00;;;;;32.94;41.77;98865.94;6226654;27;99001;-72
2022/06/29 08:07:47;;;;;;;;;14.60;14.40;;;;;33.09;41.43;98851.84;6244711;27;96652;-73
2022/06/29 08:10:50;;;;;;;;;15.50;15.50;;;;;33.56;41.17;98873.06;6243942;27;97735;-72
2022/06/29 08:13:53;;;;;;;;;17.00;15.00;;;;;33.88;40.77;98859.59;6246901;27;98267;-72
2022/06/29 08:16:57;;;;;;;;;18.80;17.00;;;;;34.14;39.84;98851.19;6263222;27;97945;-73
2022/06/29 08:20:01;;;;;;;;;18.00;18.00;;;;;34.38;39.04;98849.94;6245423;27;98523;-72
2022/06/29 08:23:05;;;;;;;;;17.40;16.00;;;;;34.50;39.16;98855.28;6243245;27;99461;-72
2022/06/29 08:26:08;;;;;;;;;17.00;16.00;;;;;34.69;39.08;98849.53;6228437;27;97784;-73
2022/06/29 08:29:32;;;;;;;;;18.00;18.00;;;;;34.72;38.20;98848.78;6244116;27;97112;-72
2022/06/29 08:32:35;;;;;;;;;17.00;16.80;;;;;34.87;38.70;98846.94;6227054;27;99597;-72
2022/06/29 08:35:41;;;;;;;;;21.00;16.00;;;;;35.02;38.25;98840.28;6244828;27;97638;-71
2022/06/29 08:38:45;;;;;;;;;19.75;18.00;;;;;34.96;37.65;98835.41;6262262;27;96693;-73
2022/06/29 08:41:49;;;;;;;;;20.00;18.00;;;;;35.09;37.91;98825.53;6261679;27;97492;-71
2022/06/29 08:44:52;;;;;;;;;18.00;17.00;;;;;35.29;37.41;98826.94;6238298;27;98435;-71
2022/06/29 08:47:56;;;;;;;;;17.00;16.00;;;;;35.54;37.34;98818.72;6262757;27;97680;-71
2022/06/29 08:51:01;;;;;;;;;18.20;16.20;;;;;35.70;36.60;98824.88;6262303;27;96570;-71
2022/06/29 08:54:07;;;;;;;;;18.00;16.20;;;;;35.86;36.67;98818.97;6262341;27;97492;-72
2022/06/29 08:57:11;;;;;;;;;20.00;18.75;;;;;36.13;36.77;98820.34;6262966;27;97406;-72
2022/06/29 09:00:15;;;;;;;;;18.00;17.00;;;;;36.31;35.72;98820.47;6244362;27;98382;-72
2022/06/29 09:03:19;;;;;;;;;20.00;18.00;;;;;36.50;35.59;98822.13;6227492;27;97413;-71
2022/06/29 09:06:24;;;;;;;;;16.25;16.00;;;;;36.59;35.93;98820.56;6262391;27;96903;-72
2022/06/29 09:09:27;;;;;;;;;18.00;17.00;;;;;36.73;35.35;98819.81;6262280;27;96411;-72
2022/06/29 09:12:32;;;;;;;;;19.00;17.00;;;;;36.77;34.81;98818.63;6262556;27;96693;-73
2022/06/29 09:15:38;;;;;;;;;16.00;16.00;;;;;36.88;34.98;98815.84;6262170;27;96787;-73
2022/06/29 09:18:44;;;;;;;;;16.80;15.80;;;;;37.04;34.39;98813.47;6244053;27;96649;-72
2022/06/29 09:21:50;;;;;;;;;17.00;15.40;;;;;37.24;34.01;98811.09;6259979;27;97049;-72
2022/06/29 09:24:54;;;;;;;;;20.00;17.00;;;;;37.14;33.64;98772.53;6262436;27;96952;-71
2022/06/29 09:28:23;;;;;;;;;19.00;18.80;;;;;37.09;33.77;98806.66;6224588;27;97761;-71
2022/06/29 09:31:26;;;;;;;;;18.00;17.40;;;;;37.04;34.26;98815.47;6247383;27;96950;-72
2022/06/29 09:34:31;;;;;;;;;18.40;17.40;;;;;36.99;35.20;98805.44;6273680;27;96926;-72
2022/06/29 09:37:36;;;;;;;;;19.60;17.00;;;;;36.80;33.90;98809.38;6249930;27;100339;-71
2022/06/29 09:40:58;;;;;;;;;17.50;16.50;;;;;36.80;34.60;98808.59;6255252;27;96388;-73
2022/06/29 09:44:02;;;;;;;;;16.40;16.00;;;;;36.97;34.02;98805.00;6237167;27;96631;-72
2022/06/29 09:47:07;;;;;;;;;19.00;18.00;;;;;37.10;33.61;98805.44;6261230;27;96676;-73
2022/06/29 09:50:11;;;;;;;;;19.40;17.60;;;;;37.14;33.46;98809.84;6261659;27;96780;-73
2022/06/29 09:53:18;;;;;;;;;21.00;20.00;;;;;37.38;34.00;98808.28;6261550;27;96664;-73
2022/06/29 09:56:22;;;;;;;;;20.00;18.00;;;;;37.50;33.13;98807.06;6260469;27;96753;-72
2022/06/29 10:02:46;;;;;;;;;17.00;16.50;;;;;37.30;33.41;98799.03;6259674;27;97063;-73
2022/06/29 10:06:04;;;;;;;;;19.00;17.00;;;;;37.55;33.94;98799.03;6261323;27;97449;-72
2022/06/29 10:09:08;;;;;;;;;19.60;18.00;;;;;37.72;34.04;98780.53;6242924;27;97752;-71
2022/06/29 10:16:00;;;;;;;;;18.00;17.00;;;;;38.09;33.02;98780.84;6242950;27;98024;-72
2022/06/29 10:19:25;;;;;;;;;17.00;15.50;;;;;38.21;32.30;98776.78;6226294;27;98192;-73
2022/06/29 10:22:29;;;;;;;;;22.00;20.00;;;;;38.43;32.50;98777.47;6243035;27;99478;-72
2022/06/29 10:25:35;;;;;;;;;19.00;17.60;;;;;38.24;32.27;98787.22;6243328;27;98120;-71
2022/06/29 10:28:38;;;;;;;;;20.00;18.40;;;;;38.00;32.43;98776.88;6260888;27;96925;-71
2022/06/29 10:32:14;;;;;;;;;17.40;16.00;;;;;37.80;31.95;98781.31;6259809;27;96551;-72
2022/06/29 10:35:18;;;;;;;;;17.80;16.40;;;;;37.96;33.39;98778.88;6258963;27;98067;-72
2022/06/29 10:38:21;;;;;;;;;20.50;19.00;;;;;38.20;33.58;98774.38;6224195;27;98383;-72
2022/06/29 10:44:59;;;;;;;;;18.00;16.60;;;;;38.21;31.93;98775.97;6253774;27;96676;-72
2022/06/29 10:48:21;;;;;;;;;19.00;18.00;;;;;38.25;33.34;98752.22;6260811;27;97209;-72
2022/06/29 10:51:27;;;;;;;;;19.00;17.00;;;;;38.57;31.49;98769.78;6225082;27;99357;-72
2022/06/29 10:54:31;;;;;;;;;16.00;16.00;;;;;38.71;31.14;98773.75;6241468;27;97151;-71
2022/06/29 10:57:37;;;;;;;;;19.60;18.00;;;;;38.83;31.77;98776.06;6241864;27;97754;-71
2022/06/29 11:00:42;;;;;;;;;18.00;16.50;;;;;39.05;31.09;98774.69;6260808;27;96402;-72
2022/06/29 11:03:46;;;;;;;;;17.00;16.00;;;;;38.86;31.32;98769.59;6260347;27;97565;-71
2022/06/29 11:13:59;;;;;;;;;21.00;20.00;;;;;39.14;31.49;98757.34;6244352;27;96706;-72
2022/06/29 11:17:02;;;;;;;;;21.00;18.40;;;;;39.36;30.82;98753.13;6241881;27;97936;-72
2022/06/29 11:20:17;;;;;;;;;19.00;18.00;;;;;39.44;30.05;98748.22;6246501;27;97468;-73
2022/06/29 11:23:24;;;;;;;;;18.40;17.40;;;;;39.59;30.18;98738.38;6247118;27;96891;-73
2022/06/29 11:26:27;;;;;;;;;19.00;19.00;;;;;39.68;29.20;98727.41;6252749;27;98572;-72
2022/06/29 11:29:34;;;;;;;;;18.67;18.00;;;;;39.70;29.91;98731.41;6264861;27;96764;-72
2022/06/29 11:32:41;;;;;;;;;19.00;17.00;;;;;39.78;29.39;98727.31;6258499;27;97352;-73
2022/06/29 11:35:44;;;;;;;;;18.80;17.00;;;;;39.73;29.05;98724.91;6263782;27;96523;-73
2022/06/29 11:38:50;;;;;;;;;19.00;18.00;;;;;39.35;28.75;98723.31;6264082;27;96402;-73
2022/06/29 11:45:37;;;;;;;;;18.00;18.00;;;;;38.50;29.51;98721.13;6170146;27;96704;-72
2022/06/29 11:52:08;;;;;;;;;21.00;17.40;;;;;38.54;29.77;98716.28;6252154;27;97178;-72
2022/06/29 11:55:12;;;;;;;;;18.60;17.60;;;;;38.50;29.56;98704.25;6261077;27;97085;-72
2022/06/29 11:58:16;;;;;;;;;17.00;16.00;;;;;38.66;30.28;98689.66;6264150;27;97516;-72
2022/06/29 12:01:23;;;;;;;;;19.00;17.60;;;;;38.84;30.38;98687.47;6249542;27;98002;-71
2022/06/29 12:04:29;;;;;;;;;17.80;17.00;;;;;39.00;29.53;98688.56;6253654;27;97605;-72
2022/06/29 12:07:32;;;;;;;;;18.00;17.40;;;;;39.03;30.09;98684.13;6264092;27;96468;-72
2022/06/29 12:10:36;;;;;;;;;17.50;16.50;;;;;39.39;29.66;98684.63;6263102;27;97484;-72
2022/06/29 12:13:39;;;;;;;;;18.60;17.40;;;;;39.74;29.22;98689.03;6263690;27;97612;-73
2022/06/29 12:16:44;;;;;;;;;15.20;15.20;;;;;39.73;27.78;98687.44;6262223;27;96575;-72
2022/06/29 12:19:47;;;;;;;;;15.00;15.00;;;;;39.71;27.90;98687.84;6261450;27;97457;-72
2022/06/29 12:22:50;;;;;;;;;19.20;18.00;;;;;39.94;27.85;98684.38;6236386;27;97149;-72
2022/06/29 12:25:56;;;;;;;;;17.00;17.00;;;;;40.13;27.21;98686.53;6259909;27;97154;-72
2022/06/29 12:29:00;;;;;;;;;19.00;17.25;;;;;40.14;27.35;98682.50;6247001;27;99516;-73
2022/06/29 12:32:05;;;;;;;;;17.00;16.20;;;;;39.87;27.35;98676.00;6262990;27;97449;-72
2022/06/29 12:35:09;;;;;;;;;17.25;17.00;;;;;39.83;27.04;98666.78;6263095;27;97411;-73
2022/06/29 12:38:13;;;;;;;;;17.40;17.40;;;;;39.91;27.74;98665.47;6241884;27;98898;-72
2022/06/29 12:41:16;;;;;;;;;16.00;16.00;;;;;39.91;27.34;98665.47;6219524;28;97768;-73
2022/06/29 12:44:19;;;;;;;;;17.80;16.40;;;;;40.10;27.42;98666.81;6236788;28;96588;-73
2022/06/29 12:47:24;;;;;;;;;15.00;15.00;;;;;40.29;27.88;98668.19;6237117;28;98088;-72
2022/06/29 12:50:28;;;;;;;;;18.75;17.75;;;;;40.15;26.44;98666.34;6237848;28;97391;-73
2022/06/29 12:53:31;;;;;;;;;17.00;17.00;;;;;39.91;26.75;98659.81;6236872;28;97454;-73
2022/06/29 12:56:35;;;;;;;;;17.00;16.00;;;;;39.68;28.11;98648.41;6234285;28;97287;-72
2022/06/29 12:59:38;;;;;;;;;18.00;16.80;;;;;39.70;26.97;98657.22;6234478;28;97391;-72
2022/06/29 13:02:44;;;;;;;;;17.00;16.00;;;;;39.63;26.97;98654.50;6233678;28;97787;-72
2022/06/29 13:05:47;;;;;;;;;18.00;16.33;;;;;39.59;27.20;98650.91;6232589;27;97422;-72
2022/06/29 13:08:51;;;;;;;;;18.00;17.00;;;;;39.70;27.36;98649.56;6233192;28;97369;-72
2022/06/29 13:11:54;;;;;;;;;17.00;16.00;;;;;39.97;28.02;98652.47;6235739;28;97474;-72
2022/06/29 13:14:58;;;;;;;;;18.50;16.50;;;;;40.32;27.52;98650.41;6235020;27;98336;-72
2022/06/29 13:18:04;;;;;;;;;18.00;17.00;;;;;40.55;27.04;98650.44;6225703;28;97015;-71
2022/06/29 13:21:08;;;;;;;;;19.67;18.00;;;;;40.66;26.16;98651.09;6233651;28;97414;-72
2022/06/29 13:24:11;;;;;;;;;18.00;17.00;;;;;40.61;27.01;98654.41;6232611;28;98111;-72
2022/06/29 13:27:14;;;;;;;;;19.00;17.40;;;;;40.54;27.12;98634.72;6233580;28;99622;-71
2022/06/29 13:30:18;;;;;;;;;18.80;18.00;;;;;40.47;26.58;98634.81;6235756;27;97571;-73
2022/06/29 13:33:22;;;;;;;;;17.25;16.50;;;;;40.22;26.83;98624.69;6235950;27;96875;-73
2022/06/29 13:36:26;;;;;;;;;18.20;18.00;;;;;40.15;27.84;98626.81;6234420;28;96644;-72
2022/06/29 13:39:29;;;;;;;;;18.40;17.00;;;;;40.02;27.32;98620.94;6236257;27;99439;-72
2022/06/29 13:42:32;;;;;;;;;19.00;18.40;;;;;39.88;27.54;98618.31;6259656;27;98077;-72
2022/06/29 13:45:56;;;;;;;;;21.00;20.00;;;;;39.71;27.59;98614.47;6259682;27;97521;-73
2022/06/29 13:49:01;;;;;;;;;17.00;15.60;;;;;39.39;27.72;98622.56;6259585;27;97461;-72
2022/06/29 13:52:04;;;;;;;;;19.00;18.00;;;;;39.29;28.48;98618.56;6240993;27;97426;-73
2022/06/29 13:55:08;;;;;;;;;21.00;19.00;;;;;39.17;28.48;98619.13;6256733;27;96611;-72
2022/06/29 13:58:12;;;;;;;;;20.40;19.00;;;;;39.05;28.82;98608.38;6229104;27;97419;-73
2022/06/29 14:01:15;;;;;;;;;20.00;17.40;;;;;39.09;28.72;98606.34;6259016;27;98092;-73
2022/06/29 14:04:23;;;;;;;;;18.00;18.00;;;;;39.14;28.02;98603.06;6240192;27;97380;-71
2022/06/29 14:07:27;;;;;;;;;20.00;19.00;;;;;39.09;28.02;98611.97;6240195;27;97454;-71
2022/06/29 14:10:50;;;;;;;;;20.00;18.00;;;;;38.93;27.94;98617.38;6257361;27;96604;-71
2022/06/29 14:13:53;;;;;;;;;19.80;18.80;;;;;38.91;28.27;98614.97;6257197;27;97490;-71
2022/06/29 14:16:57;;;;;;;;;17.00;16.00;;;;;38.96;28.38;98613.69;6233510;27;97961;-71
2022/06/29 14:20:02;;;;;;;;;18.00;17.00;;;;;38.82;28.04;98608.16;6242342;27;98378;-73
2022/06/29 14:23:05;;;;;;;;;17.40;16.00;;;;;38.60;28.28;98601.94;6259263;27;97337;-72
2022/06/29 14:26:08;;;;;;;;;17.00;15.60;;;;;38.43;28.43;98609.28;6243792;27;98194;-72
2022/06/29 14:29:12;;;;;;;;;21.00;18.00;;;;;38.35;29.13;98593.66;6261642;27;97425;-72
2022/06/29 14:32:17;;;;;;;;;17.20;16.40;;;;;38.39;29.78;98597.25;6245582;27;97847;-72
2022/06/29 14:35:31;;;;;;;;;16.00;15.00;;;;;38.45;29.54;98594.81;6247890;27;97571;-72
2022/06/29 14:38:34;;;;;;;;;18.00;16.50;;;;;38.40;28.85;98595.25;6261299;27;96691;-72
2022/06/29 14:41:38;;;;;;;;;20.00;18.00;;;;;38.48;28.69;98594.78;6247460;27;98625;-72